createdAt,value
2019-01-20T00:02:01.648Z,11.67
2019-01-20T00:04:31.346Z,11.57
2019-01-20T00:07:01.118Z,11.70
2019-01-20T00:09:38.045Z,11.67
2019-01-20T00:12:17.441Z,12.17
2019-01-20T00:14:47.285Z,11.57
2019-01-20T00:17:16.984Z,11.87
2019-01-20T00:19:46.685Z,12.17
2019-01-20T00:22:16.791Z,12.60
2019-01-20T00:24:46.566Z,11.87
2019-01-20T00:27:16.344Z,11.97
2019-01-20T00:29:46.022Z,11.37
2019-01-20T00:32:15.752Z,11.80
2019-01-20T00:34:45.556Z,11.63
2019-01-20T00:37:15.346Z,11.53
2019-01-20T00:39:45.026Z,12.57
2019-01-20T00:42:14.784Z,11.77
2019-01-20T00:44:44.584Z,12.07
2019-01-20T00:47:14.326Z,12.90
2019-01-20T00:49:44.146Z,12.40
2019-01-20T00:52:13.865Z,12.60
2019-01-20T00:54:43.690Z,11.60
2019-01-20T00:57:13.453Z,11.33
2019-01-20T00:59:43.225Z,11.23
2019-01-20T01:02:13.002Z,11.87
2019-01-20T01:04:42.919Z,11.20
2019-01-20T01:07:12.625Z,11.47
2019-01-20T01:09:42.353Z,11.77
2019-01-20T01:12:15.047Z,11.10
2019-01-20T01:14:44.667Z,11.37
2019-01-20T01:17:14.386Z,11.20
2019-01-20T01:19:44.218Z,11.80
2019-01-20T01:22:13.866Z,11.63
2019-01-20T01:24:43.646Z,11.20
2019-01-20T01:27:13.491Z,11.53
2019-01-20T01:29:43.274Z,11.07
2019-01-20T01:32:13.027Z,10.63
2019-01-20T01:34:42.827Z,11.40
2019-01-20T01:37:12.666Z,12.33
2019-01-20T01:39:42.429Z,11.70
2019-01-20T01:42:12.146Z,10.47
2019-01-20T01:44:41.926Z,11.67
2019-01-20T01:47:11.605Z,11.50
2019-01-20T01:49:41.325Z,10.93
2019-01-20T01:52:11.147Z,11.73
2019-01-20T01:54:41.088Z,12.23
2019-01-20T01:57:10.906Z,11.43
2019-01-20T01:59:40.710Z,12.73
2019-01-20T02:02:10.906Z,12.00
2019-01-20T02:04:40.727Z,11.90
2019-01-20T02:07:10.537Z,12.10
2019-01-20T02:09:40.346Z,11.77
2019-01-20T02:12:10.047Z,11.87
2019-01-20T02:14:39.909Z,11.70
2019-01-20T02:17:09.728Z,11.33
2019-01-20T02:19:39.446Z,11.73
2019-01-20T02:22:09.315Z,11.80
2019-01-20T02:24:39.086Z,11.67
2019-01-20T02:27:08.826Z,12.63
2019-01-20T02:29:38.626Z,12.10
2019-01-20T02:32:08.401Z,12.57
2019-01-20T02:34:38.269Z,12.60
2019-01-20T02:37:08.150Z,12.27
2019-01-20T02:39:37.951Z,12.40
2019-01-20T02:42:08.081Z,12.80
2019-01-20T02:44:37.784Z,12.57
2019-01-20T02:47:07.767Z,12.40
2019-01-20T02:49:37.559Z,11.93
2019-01-20T02:52:07.447Z,12.30
2019-01-20T02:54:37.285Z,11.67
2019-01-20T02:57:07.110Z,13.00
2019-01-20T02:59:36.805Z,13.20
2019-01-20T03:02:06.711Z,12.83
2019-01-20T03:04:36.506Z,12.20
2019-01-20T03:07:06.325Z,12.60
2019-01-20T03:09:38.764Z,13.43
2019-01-20T03:12:08.748Z,12.90
2019-01-20T03:14:38.547Z,12.60
2019-01-20T03:17:11.062Z,13.10
2019-01-20T03:19:40.900Z,13.47
2019-01-20T03:22:10.652Z,13.83
2019-01-20T03:24:45.852Z,13.93
2019-01-20T03:27:16.628Z,14.10
2019-01-20T03:29:46.379Z,13.73
2019-01-20T03:32:16.240Z,13.93
2019-01-20T03:34:46.456Z,13.23
2019-01-20T03:37:17.842Z,13.20
2019-01-20T03:39:50.433Z,13.37
2019-01-20T03:42:20.061Z,14.13
2019-01-20T03:44:50.076Z,14.13
2019-01-20T03:47:19.876Z,14.07
2019-01-20T03:49:49.590Z,13.57
2019-01-20T03:52:19.457Z,14.00
2019-01-20T03:54:49.245Z,14.40
2019-01-20T03:57:19.057Z,13.80
2019-01-20T03:59:52.130Z,13.30
2019-01-20T04:02:24.361Z,13.90
2019-01-20T04:04:54.173Z,13.03
2019-01-20T04:07:25.562Z,13.30
2019-01-20T04:09:55.342Z,13.60
2019-01-20T04:12:25.184Z,12.97
2019-01-20T04:14:54.930Z,14.27
2019-01-20T04:17:24.661Z,13.33
2019-01-20T04:19:54.301Z,13.83
2019-01-20T04:22:25.041Z,13.80
2019-01-20T04:24:54.749Z,14.80
2019-01-20T04:27:24.597Z,13.87
2019-01-20T04:29:54.324Z,14.40
2019-01-20T04:32:24.129Z,13.77
2019-01-20T04:34:53.949Z,15.20
2019-01-20T04:37:23.751Z,15.93
2019-01-20T04:39:53.494Z,16.50
2019-01-20T04:42:28.947Z,17.17
2019-01-20T04:44:54.828Z,18.30
2019-01-20T04:47:24.531Z,17.97
2019-01-20T04:49:54.290Z,21.00
2019-01-20T04:52:24.091Z,19.93
2019-01-20T04:54:53.905Z,21.50
2019-01-20T04:57:23.683Z,20.17
2019-01-20T04:59:53.573Z,19.37
2019-01-20T05:02:23.426Z,17.90
2019-01-20T05:04:53.409Z,17.63
2019-01-20T05:07:23.428Z,18.17
2019-01-20T05:09:53.933Z,18.30
2019-01-20T05:12:23.765Z,18.37
2019-01-20T05:14:53.498Z,17.93
2019-01-20T05:17:23.269Z,17.90
2019-01-20T05:19:57.002Z,17.90
2019-01-20T05:22:26.829Z,17.37
2019-01-20T05:24:56.579Z,18.33
2019-01-20T05:27:27.127Z,17.97
2019-01-20T05:29:57.108Z,17.90
2019-01-20T05:32:26.922Z,18.67
2019-01-20T05:34:56.997Z,18.27
2019-01-20T05:37:27.063Z,18.53
2019-01-20T05:39:56.861Z,18.57
2019-01-20T05:42:26.795Z,18.70
2019-01-20T05:44:56.374Z,17.70
2019-01-20T05:47:26.974Z,18.50
2019-01-20T05:49:57.405Z,18.27
2019-01-20T05:52:27.361Z,17.53
2019-01-20T05:54:57.365Z,17.60
2019-01-20T05:57:27.385Z,17.50
2019-01-20T05:59:57.333Z,16.87
2019-01-20T06:02:29.554Z,17.67
2019-01-20T06:04:59.508Z,17.03
2019-01-20T06:07:29.338Z,17.40
2019-01-20T06:09:59.147Z,16.93
2019-01-20T06:12:31.212Z,17.80
2019-01-20T06:15:01.049Z,17.60
2019-01-20T06:17:30.836Z,16.33
2019-01-20T06:20:00.651Z,16.50
2019-01-20T06:22:31.625Z,17.57
2019-01-20T06:25:02.490Z,17.60
2019-01-20T06:27:32.328Z,16.60
2019-01-20T06:30:02.040Z,17.50
2019-01-20T06:32:31.777Z,16.40
2019-01-20T06:35:01.637Z,32.00
2019-01-20T06:37:32.267Z,61.10
2019-01-20T06:40:02.011Z,25.70
2019-01-20T06:42:32.545Z,19.43
2019-01-20T06:45:02.434Z,17.27
2019-01-20T06:47:32.179Z,16.87
2019-01-20T06:50:01.963Z,15.73
2019-01-20T06:52:34.368Z,15.97
2019-01-20T06:55:04.907Z,16.10
2019-01-20T06:57:39.471Z,16.57
2019-01-20T07:00:13.965Z,16.57
2019-01-20T07:02:43.808Z,16.77
2019-01-20T07:05:14.573Z,16.33
2019-01-20T07:07:44.380Z,16.40
2019-01-20T07:10:27.441Z,17.40
2019-01-20T07:12:57.233Z,17.20
2019-01-20T07:15:27.096Z,17.70
2019-01-20T07:17:56.929Z,17.93
2019-01-20T07:20:26.768Z,60.57
2019-01-20T07:22:56.481Z,20.37
2019-01-20T07:25:26.119Z,18.73
2019-01-20T07:27:57.014Z,22.37
2019-01-20T07:30:26.823Z,20.43
2019-01-20T07:32:56.642Z,20.10
2019-01-20T07:35:26.462Z,19.33
2019-01-20T07:37:56.275Z,20.23
2019-01-20T07:40:26.102Z,21.93
2019-01-20T07:42:55.958Z,21.20
2019-01-20T07:45:26.015Z,21.10
2019-01-20T07:47:55.841Z,19.53
2019-01-20T07:50:26.230Z,20.67
2019-01-20T07:52:56.076Z,22.10
2019-01-20T07:55:26.649Z,24.43
2019-01-20T07:57:56.509Z,25.43
2019-01-20T08:00:26.627Z,23.97
2019-01-20T08:02:56.358Z,21.83
2019-01-20T08:05:26.059Z,22.43
2019-01-20T08:07:55.899Z,21.90
2019-01-20T08:10:27.549Z,20.40
2019-01-20T08:12:57.419Z,19.80
2019-01-20T08:15:27.273Z,18.33
2019-01-20T08:17:57.334Z,18.77
2019-01-20T08:20:27.136Z,18.73
2019-01-20T08:22:57.145Z,19.20
2019-01-20T08:25:27.003Z,18.73
2019-01-20T08:27:59.295Z,18.70
2019-01-20T08:30:31.641Z,18.93
2019-01-20T08:33:01.446Z,18.57
2019-01-20T08:35:31.176Z,18.27
2019-01-20T08:38:01.049Z,19.87
2019-01-20T08:40:32.502Z,17.93
2019-01-20T08:43:02.468Z,17.33
2019-01-20T08:45:38.488Z,16.50
2019-01-20T08:48:14.096Z,17.53
2019-01-20T08:50:44.494Z,17.03
2019-01-20T08:53:15.093Z,16.10
2019-01-20T08:55:44.937Z,16.83
2019-01-20T08:58:14.760Z,16.63
2019-01-20T09:00:44.595Z,18.60
2019-01-20T09:03:14.404Z,18.50
2019-01-20T09:05:44.199Z,17.20
2019-01-20T09:08:15.057Z,19.07
2019-01-20T09:10:44.932Z,17.20
2019-01-20T09:13:14.839Z,15.47
2019-01-20T09:15:44.655Z,16.27
2019-01-20T09:18:14.493Z,14.37
2019-01-20T09:20:44.282Z,14.83
2019-01-20T09:23:14.887Z,15.27
2019-01-20T09:25:46.628Z,14.57
2019-01-20T09:28:16.577Z,16.23
2019-01-20T09:30:46.414Z,16.00
2019-01-20T09:33:24.542Z,16.53
2019-01-20T09:35:49.521Z,15.23
2019-01-20T09:38:19.338Z,19.57
2019-01-20T09:40:49.090Z,15.67
2019-01-20T09:43:18.883Z,14.37
2019-01-20T09:45:49.352Z,13.60
2019-01-20T09:48:18.957Z,13.50
2019-01-20T09:50:48.706Z,14.20
2019-01-20T09:53:18.531Z,12.50
2019-01-20T09:55:48.210Z,12.63
2019-01-20T09:58:19.297Z,13.90
2019-01-20T10:00:49.247Z,14.10
2019-01-20T10:03:19.073Z,13.17
2019-01-20T10:05:48.919Z,12.30
2019-01-20T10:08:18.737Z,11.63
2019-01-20T10:10:48.809Z,12.00
2019-01-20T10:13:18.729Z,12.13
2019-01-20T10:15:48.415Z,12.43
2019-01-20T10:18:18.189Z,13.13
2019-01-20T10:23:26.589Z,11.80
2019-01-20T10:25:56.343Z,12.20
2019-01-20T10:28:26.149Z,12.23
2019-01-20T10:30:57.465Z,11.57
2019-01-20T10:33:27.299Z,12.63
2019-01-20T10:35:58.662Z,12.23
2019-01-20T10:38:28.838Z,13.20
2019-01-20T10:40:58.678Z,12.77
2019-01-20T10:43:29.479Z,11.87
2019-01-20T10:45:59.378Z,12.10
2019-01-20T10:48:29.164Z,11.13
2019-01-20T10:50:58.999Z,11.13
2019-01-20T10:53:28.921Z,10.73
2019-01-20T10:55:59.019Z,11.17
2019-01-20T10:58:28.670Z,10.50
2019-01-20T11:00:58.479Z,10.83
2019-01-20T11:03:28.459Z,11.83
2019-01-20T11:05:59.998Z,11.70
2019-01-20T11:08:29.719Z,10.47
2019-01-20T11:10:59.521Z,10.93
2019-01-20T11:13:29.133Z,11.80
2019-01-20T11:15:58.977Z,11.30
2019-01-20T11:18:28.810Z,10.63
2019-01-20T11:20:58.557Z,11.77
2019-01-20T11:23:28.747Z,10.13
2019-01-20T11:25:58.658Z,10.03
2019-01-20T11:28:28.441Z,11.00
2019-01-20T11:30:58.431Z,10.30
2019-01-20T11:33:28.119Z,9.90
2019-01-20T11:35:57.944Z,10.73
2019-01-20T11:38:27.698Z,13.70
2019-01-20T11:40:59.744Z,13.10
2019-01-20T11:43:29.320Z,11.80
2019-01-20T11:45:59.063Z,12.03
2019-01-20T11:48:28.845Z,12.40
2019-01-20T11:50:58.585Z,11.97
2019-01-20T11:53:28.146Z,10.93
2019-01-20T11:55:57.995Z,11.97
2019-01-20T11:58:27.784Z,11.50
2019-01-20T12:00:57.744Z,11.40
2019-01-20T12:03:27.545Z,11.53
2019-01-20T12:05:57.283Z,12.63
2019-01-20T12:08:30.800Z,12.37
2019-01-20T12:10:58.659Z,12.40
2019-01-20T12:13:28.500Z,12.13
2019-01-20T12:15:58.297Z,12.20
2019-01-20T12:18:28.039Z,12.37
2019-01-20T12:20:57.861Z,11.83
2019-01-20T12:23:27.655Z,12.33
2019-01-20T12:25:57.456Z,12.87
2019-01-20T12:28:27.284Z,12.10
2019-01-20T12:30:57.123Z,12.60
2019-01-20T12:33:26.956Z,65.50
2019-01-20T12:35:58.306Z,14.77
2019-01-20T12:38:28.084Z,11.50
2019-01-20T12:41:00.451Z,12.27
2019-01-20T12:43:30.393Z,11.63
2019-01-20T12:46:01.442Z,11.00
2019-01-20T12:48:31.255Z,24.10
2019-01-20T12:51:01.036Z,12.10
2019-01-20T12:53:30.751Z,10.97
2019-01-20T12:56:00.528Z,11.37
2019-01-20T12:58:30.328Z,11.83
2019-01-20T13:01:00.172Z,11.70
2019-01-20T13:03:30.947Z,11.77
2019-01-20T13:06:00.929Z,11.97
2019-01-20T13:08:31.990Z,11.10
2019-01-20T13:11:01.728Z,11.00
2019-01-20T13:13:31.538Z,11.50
2019-01-20T13:16:03.917Z,12.20
2019-01-20T13:18:33.657Z,11.70
2019-01-20T13:21:03.436Z,11.80
2019-01-20T13:23:33.285Z,11.40
2019-01-20T13:26:03.111Z,11.10
2019-01-20T13:28:33.043Z,15.47
2019-01-20T13:31:03.049Z,15.73
2019-01-20T13:33:32.873Z,11.47
2019-01-20T13:36:07.105Z,12.40
2019-01-20T13:38:34.191Z,12.67
2019-01-20T13:41:03.987Z,14.73
2019-01-20T13:43:33.823Z,12.07
2019-01-20T13:46:03.638Z,11.37
2019-01-20T13:48:33.518Z,11.20
2019-01-20T13:51:03.317Z,10.83
2019-01-20T13:53:33.153Z,11.03
2019-01-20T13:56:03.009Z,11.23
2019-01-20T13:58:32.849Z,10.70
2019-01-20T14:01:04.498Z,10.77
2019-01-20T14:03:34.820Z,11.27
2019-01-20T14:06:06.259Z,25.23
2019-01-20T14:08:36.080Z,12.27
2019-01-20T14:11:06.209Z,11.50
2019-01-20T14:13:35.939Z,11.20
2019-01-20T14:16:05.781Z,10.93
2019-01-20T14:18:35.796Z,11.00
2019-01-20T14:21:05.733Z,11.27
2019-01-20T14:23:35.513Z,10.90
2019-01-20T14:26:05.700Z,11.10
2019-01-20T14:28:35.853Z,11.10
2019-01-20T14:31:05.660Z,11.97
2019-01-20T14:33:35.522Z,15.13
2019-01-20T14:36:05.698Z,16.77
2019-01-20T14:38:35.431Z,11.70
2019-01-20T14:41:05.286Z,11.80
2019-01-20T14:43:36.376Z,11.83
2019-01-20T14:46:06.235Z,11.50
2019-01-20T14:48:36.001Z,12.57
2019-01-20T14:51:06.002Z,11.90
2019-01-20T14:53:35.829Z,11.17
2019-01-20T14:56:05.885Z,11.03
2019-01-20T14:58:35.817Z,11.07
2019-01-20T15:01:05.617Z,11.23
2019-01-20T15:03:35.474Z,11.63
2019-01-20T15:06:05.762Z,12.20
2019-01-20T15:08:35.960Z,11.60
2019-01-20T15:11:05.849Z,12.23
2019-01-20T15:13:35.749Z,12.30
2019-01-20T15:16:06.586Z,12.70
2019-01-20T15:18:36.459Z,11.67
2019-01-20T15:21:06.362Z,11.50
2019-01-20T15:23:36.191Z,11.37
2019-01-20T15:26:08.037Z,11.60
2019-01-20T15:28:37.934Z,11.87
2019-01-20T15:31:07.747Z,13.10
2019-01-20T15:33:37.648Z,12.83
2019-01-20T15:36:07.543Z,13.10
2019-01-20T15:38:37.364Z,12.33
2019-01-20T15:41:07.509Z,12.80
2019-01-20T15:43:37.286Z,12.40
2019-01-20T15:46:07.087Z,11.87
2019-01-20T15:48:37.446Z,12.57
2019-01-20T15:51:07.557Z,14.03
2019-01-20T15:53:37.582Z,15.23
2019-01-20T15:56:07.623Z,18.07
2019-01-20T15:58:38.766Z,18.50
2019-01-20T16:01:08.550Z,40.43
2019-01-20T16:03:38.859Z,72.17
2019-01-20T16:06:08.735Z,24.47
2019-01-20T16:08:38.609Z,19.40
2019-01-20T16:11:08.394Z,18.47
2019-01-20T16:13:38.296Z,19.50
2019-01-20T16:16:10.147Z,21.00
2019-01-20T16:18:40.028Z,21.07
2019-01-20T16:21:10.070Z,20.90
2019-01-20T16:23:40.180Z,19.23
2019-01-20T16:26:10.266Z,21.60
2019-01-20T16:28:40.162Z,20.67
2019-01-20T16:31:09.989Z,21.63
2019-01-20T16:33:39.856Z,20.50
2019-01-20T16:36:10.216Z,18.90
2019-01-20T16:38:40.051Z,19.17
2019-01-20T16:41:10.238Z,19.47
2019-01-20T16:43:40.172Z,18.07
2019-01-20T16:46:09.885Z,17.50
2019-01-20T16:48:39.926Z,17.57
2019-01-20T16:51:09.774Z,17.13
2019-01-20T16:53:39.805Z,16.40
2019-01-20T16:56:10.588Z,16.67
2019-01-20T16:58:40.576Z,15.13
2019-01-20T17:01:10.450Z,15.43
2019-01-20T17:03:41.667Z,15.23
2019-01-20T17:06:11.611Z,15.40
2019-01-20T17:08:41.387Z,85.07
2019-01-20T17:11:11.393Z,20.67
2019-01-20T17:13:41.248Z,15.20
2019-01-20T17:16:11.314Z,17.03
2019-01-20T17:18:42.239Z,16.80
2019-01-20T17:21:12.493Z,37.30
2019-01-20T17:23:42.521Z,35.17
2019-01-20T17:26:12.641Z,24.57
2019-01-20T17:28:42.727Z,25.03
2019-01-20T17:31:13.509Z,26.73
2019-01-20T17:33:43.336Z,21.70
2019-01-20T17:36:13.193Z,24.23
2019-01-20T17:38:44.136Z,26.13
2019-01-20T17:41:14.005Z,26.50
2019-01-20T17:43:43.825Z,22.43
2019-01-20T17:46:14.045Z,23.00
2019-01-20T17:48:43.926Z,27.13
2019-01-20T17:51:13.771Z,23.63
2019-01-20T17:53:43.726Z,26.50
2019-01-20T17:56:13.637Z,26.50
2019-01-20T17:58:43.346Z,26.20
2019-01-20T18:01:14.705Z,25.53
2019-01-20T18:03:45.045Z,26.50
2019-01-20T18:06:17.247Z,26.17
2019-01-20T18:08:47.072Z,29.10
2019-01-20T18:11:16.868Z,28.00
2019-01-20T18:13:46.658Z,26.23
2019-01-20T18:16:17.385Z,25.90
2019-01-20T18:18:49.502Z,27.47
2019-01-20T18:21:19.222Z,25.70
2019-01-20T18:23:50.183Z,40.13
2019-01-20T18:26:19.953Z,31.33
2019-01-20T18:28:49.734Z,25.00
2019-01-20T18:31:19.541Z,26.60
2019-01-20T18:33:51.375Z,27.67
2019-01-20T18:36:24.150Z,28.37
2019-01-20T18:41:57.794Z,28.73
2019-01-20T18:44:27.575Z,26.73
2019-01-20T18:46:57.444Z,24.33
2019-01-20T18:49:27.229Z,26.73
2019-01-20T18:51:57.071Z,26.70
2019-01-20T18:54:26.874Z,27.90
2019-01-20T18:56:56.653Z,26.87
2019-01-20T18:59:26.962Z,25.70
2019-01-20T19:01:59.565Z,27.07
2019-01-20T19:04:29.387Z,26.23
2019-01-20T19:06:59.588Z,24.97
2019-01-20T19:09:30.365Z,23.97
2019-01-20T19:12:00.546Z,22.53
2019-01-20T19:14:31.307Z,23.87
2019-01-20T19:17:01.100Z,22.90
2019-01-20T19:19:30.896Z,23.50
2019-01-20T19:22:01.011Z,21.97
2019-01-20T19:24:31.088Z,22.73
2019-01-20T19:27:03.009Z,23.73
2019-01-20T19:29:33.160Z,23.33
2019-01-20T19:32:03.021Z,24.53
2019-01-20T19:34:32.859Z,23.80
2019-01-20T19:37:03.574Z,25.30
2019-01-20T19:39:33.366Z,25.43
2019-01-20T19:42:03.166Z,25.20
2019-01-20T19:44:32.953Z,23.87
2019-01-20T19:47:02.903Z,22.70
2019-01-20T19:49:34.021Z,22.40
2019-01-20T19:52:09.537Z,25.10
2019-01-20T19:54:40.194Z,24.53
2019-01-20T19:57:10.026Z,25.67
2019-01-20T19:59:39.829Z,23.33
2019-01-20T20:02:09.623Z,25.77
2019-01-20T20:04:42.836Z,34.47
2019-01-20T20:07:12.611Z,27.17
2019-01-20T20:09:42.390Z,26.17
2019-01-20T20:12:13.083Z,25.50
2019-01-20T20:14:42.871Z,25.87
2019-01-20T20:17:12.635Z,26.07
2019-01-20T20:19:42.451Z,25.93
2019-01-20T20:22:12.225Z,26.53
2019-01-20T20:24:43.622Z,25.73
2019-01-20T20:27:13.441Z,26.07
2019-01-20T20:29:43.218Z,25.90
2019-01-20T20:32:13.014Z,24.77
2019-01-20T20:34:42.832Z,25.27
2019-01-20T20:37:12.590Z,25.43
2019-01-20T20:39:42.381Z,25.07
2019-01-20T20:42:13.867Z,24.20
2019-01-20T20:44:44.042Z,24.87
2019-01-20T20:47:13.864Z,24.70
2019-01-20T20:49:43.644Z,23.87
2019-01-20T20:52:13.410Z,23.93
2019-01-20T20:54:43.207Z,23.90
2019-01-20T20:57:13.227Z,24.93
2019-01-20T20:59:43.022Z,25.40
2019-01-20T21:02:12.805Z,24.90
2019-01-20T21:04:42.628Z,25.63
2019-01-20T21:07:12.411Z,24.23
2019-01-20T21:09:42.231Z,24.87
2019-01-20T21:12:12.052Z,25.73
2019-01-20T21:14:41.827Z,24.10
2019-01-20T21:17:11.657Z,25.60
2019-01-20T21:19:42.427Z,24.53
2019-01-20T21:22:12.442Z,25.90
2019-01-20T21:24:42.259Z,25.00
2019-01-20T21:27:12.431Z,24.77
2019-01-20T21:29:42.291Z,24.17
2019-01-20T21:32:13.126Z,24.63
2019-01-20T21:34:43.141Z,25.17
2019-01-20T21:37:14.286Z,26.53
2019-01-20T21:39:44.182Z,26.47
2019-01-20T21:42:13.906Z,27.17
2019-01-20T21:44:43.687Z,26.00
2019-01-20T21:47:15.228Z,27.53
2019-01-20T21:49:45.101Z,26.03
2019-01-20T21:52:15.132Z,26.33
2019-01-20T21:54:44.943Z,27.03
2019-01-20T21:57:14.938Z,26.97
2019-01-20T21:59:45.617Z,28.87
2019-01-20T22:02:15.481Z,29.47
2019-01-20T22:04:45.204Z,27.97
2019-01-20T22:07:15.129Z,28.27
2019-01-20T22:09:45.447Z,27.13
2019-01-20T22:12:15.143Z,26.67
2019-01-20T22:14:44.863Z,28.17
2019-01-20T22:17:14.687Z,27.67
2019-01-20T22:19:44.477Z,27.77
2019-01-20T22:22:14.122Z,29.37
2019-01-20T22:24:44.594Z,28.67
2019-01-20T22:27:14.412Z,28.97
2019-01-20T22:29:44.368Z,27.67
2019-01-20T22:32:14.127Z,29.03
2019-01-20T22:34:44.209Z,28.33
2019-01-20T22:37:13.905Z,28.70
2019-01-20T22:39:43.668Z,28.60
2019-01-20T22:42:13.408Z,28.57
2019-01-20T22:44:43.037Z,27.60
2019-01-20T22:47:12.732Z,28.40
2019-01-20T22:49:42.572Z,28.47
2019-01-20T22:52:12.317Z,30.20
2019-01-20T22:54:42.202Z,28.80
2019-01-20T22:57:11.841Z,28.73
2019-01-20T22:59:44.757Z,28.60
2019-01-20T23:02:14.707Z,27.53
2019-01-20T23:04:44.556Z,27.70
2019-01-20T23:07:14.420Z,27.20
2019-01-20T23:09:44.160Z,27.60
2019-01-20T23:12:14.241Z,27.30
2019-01-20T23:14:46.820Z,27.20
2019-01-20T23:17:16.620Z,27.87
2019-01-20T23:19:46.441Z,28.10
2019-01-20T23:22:16.223Z,27.60
2019-01-20T23:24:46.080Z,28.03
2019-01-20T23:27:15.882Z,27.57
2019-01-20T23:29:45.722Z,29.20
2019-01-20T23:32:15.674Z,28.10
2019-01-20T23:34:45.330Z,29.07
2019-01-20T23:37:15.159Z,28.50
2019-01-20T23:39:47.437Z,28.17
2019-01-20T23:42:17.243Z,27.90
2019-01-20T23:44:49.606Z,27.83
2019-01-20T23:47:22.398Z,27.67
2019-01-20T23:49:56.863Z,27.30
2019-01-20T23:52:26.658Z,28.63
2019-01-20T23:54:56.465Z,27.37
2019-01-20T23:57:26.278Z,28.20
2019-01-20T23:59:57.402Z,27.40
